createdAt,value
2018-03-29T00:00:55.550Z,99.99
2018-03-29T00:01:55.954Z,99.99
2018-03-29T00:02:56.139Z,99.99
2018-03-29T00:03:56.243Z,99.99
2018-03-29T00:04:56.261Z,99.99
2018-03-29T00:05:56.660Z,99.99
2018-03-29T00:06:56.412Z,99.99
2018-03-29T00:07:56.816Z,99.99
2018-03-29T00:08:57.225Z,99.99
2018-03-29T00:09:57.360Z,99.99
2018-03-29T00:10:57.511Z,99.99
2018-03-29T00:11:57.607Z,99.99
2018-03-29T00:12:57.763Z,99.99
2018-03-29T00:13:57.783Z,99.99
2018-03-29T00:14:57.897Z,99.99
2018-03-29T00:15:57.903Z,99.99
2018-03-29T00:16:58.013Z,99.99
2018-03-29T00:17:58.160Z,99.99
2018-03-29T00:18:58.258Z,99.99
2018-03-29T00:19:58.559Z,99.99
2018-03-29T00:20:58.587Z,99.99
2018-03-29T00:21:58.740Z,99.99
2018-03-29T00:22:58.583Z,99.99
2018-03-29T00:23:58.875Z,99.99
2018-03-29T00:24:58.706Z,99.99
2018-03-29T00:25:58.742Z,99.99
2018-03-29T00:26:58.763Z,99.99
2018-03-29T00:27:59.119Z,99.99
2018-03-29T00:29:18.534Z,99.99
2018-03-29T00:30:18.255Z,99.99
2018-03-29T00:31:18.386Z,99.99
2018-03-29T00:32:18.578Z,99.99
2018-03-29T00:33:18.282Z,99.99
2018-03-29T00:34:18.670Z,99.99
2018-03-29T00:35:18.709Z,99.99
2018-03-29T00:36:18.805Z,99.99
2018-03-29T00:37:18.375Z,99.99
2018-03-29T00:38:18.738Z,99.99
2018-03-29T00:39:18.764Z,99.99
2018-03-29T00:40:18.882Z,99.99
2018-03-29T00:41:18.798Z,99.99
2018-03-29T00:42:18.796Z,99.99
2018-03-29T00:43:18.820Z,99.99
2018-03-29T00:44:18.853Z,99.99
2018-03-29T00:45:18.682Z,99.99
2018-03-29T00:46:18.887Z,99.99
2018-03-29T00:47:18.884Z,99.99
2018-03-29T00:48:18.986Z,99.99
2018-03-29T00:49:18.990Z,99.99
2018-03-29T00:50:19.021Z,99.99
2018-03-29T00:51:19.020Z,99.99
2018-03-29T00:52:18.754Z,99.99
2018-03-29T00:53:19.059Z,99.99
2018-03-29T00:54:19.140Z,99.99
2018-03-29T00:55:19.131Z,99.99
2018-03-29T00:56:18.831Z,99.99
2018-03-29T00:57:19.177Z,99.99
2018-03-29T00:58:19.195Z,99.99
2018-03-29T00:59:19.298Z,99.99
2018-03-29T01:00:22.662Z,99.99
2018-03-29T01:01:22.691Z,99.99
2018-03-29T01:02:22.716Z,99.99
2018-03-29T01:03:22.963Z,99.99
2018-03-29T01:04:22.968Z,99.99
2018-03-29T01:05:23.454Z,99.99
2018-03-29T01:06:23.467Z,99.99
2018-03-29T01:07:23.942Z,99.99
2018-03-29T01:08:23.691Z,99.99
2018-03-29T01:09:24.211Z,99.99
2018-03-29T01:10:24.229Z,99.99
2018-03-29T01:11:24.183Z,99.99
2018-03-29T01:12:24.480Z,99.99
2018-03-29T01:13:24.500Z,99.99
2018-03-29T01:14:24.518Z,99.99
2018-03-29T01:15:24.552Z,99.99
2018-03-29T01:16:24.570Z,99.99
2018-03-29T01:17:24.595Z,99.99
2018-03-29T01:18:24.611Z,99.99
2018-03-29T01:19:24.632Z,99.99
2018-03-29T01:20:24.611Z,99.99
2018-03-29T01:21:24.990Z,99.99
2018-03-29T01:22:24.952Z,99.99
2018-03-29T01:23:24.956Z,99.99
2018-03-29T01:24:25.213Z,99.99
2018-03-29T01:25:25.220Z,99.99
2018-03-29T01:26:25.240Z,99.99
2018-03-29T01:27:25.260Z,99.99
2018-03-29T01:28:25.295Z,99.99
2018-03-29T01:29:25.228Z,99.99
2018-03-29T01:30:25.962Z,99.99
2018-03-29T01:31:25.712Z,99.99
2018-03-29T01:32:26.026Z,99.99
2018-03-29T01:33:26.053Z,99.99
2018-03-29T01:34:25.833Z,99.99
2018-03-29T01:35:26.590Z,99.99
2018-03-29T01:36:26.619Z,99.99
2018-03-29T01:37:26.355Z,99.99
2018-03-29T01:38:26.663Z,99.99
2018-03-29T01:39:26.676Z,99.99
2018-03-29T01:40:26.896Z,99.99
2018-03-29T01:41:26.918Z,99.99
2018-03-29T01:42:26.950Z,99.99
2018-03-29T01:43:26.983Z,99.99
2018-03-29T01:44:26.719Z,99.99
2018-03-29T01:45:27.012Z,99.99
2018-03-29T01:46:27.031Z,99.99
2018-03-29T01:47:26.993Z,99.99
2018-03-29T01:48:27.287Z,99.99
2018-03-29T01:49:27.328Z,99.99
2018-03-29T01:50:27.439Z,99.99
2018-03-29T01:51:27.360Z,99.99
2018-03-29T01:52:27.110Z,99.99
2018-03-29T01:53:27.405Z,99.99
2018-03-29T01:54:27.433Z,99.99
2018-03-29T01:55:27.454Z,99.99
2018-03-29T01:56:27.203Z,99.99
2018-03-29T01:57:27.503Z,99.99
2018-03-29T01:58:27.529Z,99.99
2018-03-29T01:59:27.540Z,99.99
2018-03-29T02:00:27.266Z,99.99
2018-03-29T02:01:27.781Z,99.99
2018-03-29T02:02:28.194Z,99.99
2018-03-29T02:03:28.572Z,99.99
2018-03-29T02:04:28.971Z,99.99
2018-03-29T02:05:28.978Z,99.99
2018-03-29T02:06:29.003Z,99.99
2018-03-29T02:07:29.029Z,99.99
2018-03-29T02:08:29.050Z,99.99
2018-03-29T02:09:29.088Z,99.99
2018-03-29T02:10:29.101Z,99.99
2018-03-29T02:11:29.127Z,99.99
2018-03-29T02:12:29.244Z,99.99
2018-03-29T02:13:29.258Z,99.99
2018-03-29T02:14:29.624Z,99.99
2018-03-29T02:15:29.742Z,99.99
2018-03-29T02:16:29.761Z,99.99
2018-03-29T02:17:30.159Z,99.99
2018-03-29T02:18:30.187Z,99.99
2018-03-29T02:19:30.205Z,99.99
2018-03-29T02:20:30.241Z,99.99
2018-03-29T02:21:30.352Z,99.99
2018-03-29T02:22:30.455Z,99.99
2018-03-29T02:23:30.472Z,99.99
2018-03-29T02:24:30.880Z,99.99
2018-03-29T02:25:30.892Z,99.99
2018-03-29T02:26:30.642Z,99.99
2018-03-29T02:27:31.297Z,99.99
2018-03-29T02:28:31.314Z,99.99
2018-03-29T02:29:31.067Z,99.99
2018-03-29T02:30:31.090Z,99.99
2018-03-29T02:31:31.454Z,99.99
2018-03-29T02:32:31.197Z,99.99
2018-03-29T02:33:31.606Z,99.99
2018-03-29T02:34:31.640Z,99.99
2018-03-29T02:35:31.370Z,99.99
2018-03-29T02:36:31.693Z,99.99
2018-03-29T02:37:31.709Z,99.99
2018-03-29T02:38:31.720Z,99.99
2018-03-29T02:39:31.856Z,99.99
2018-03-29T02:40:31.867Z,99.99
2018-03-29T02:41:32.038Z,99.99
2018-03-29T02:42:32.061Z,99.99
2018-03-29T02:43:32.455Z,99.99
2018-03-29T02:44:32.840Z,99.99
2018-03-29T02:45:32.849Z,99.99
2018-03-29T02:46:32.952Z,99.99
2018-03-29T02:47:33.275Z,99.99
2018-03-29T02:48:33.294Z,99.99
2018-03-29T02:49:33.710Z,99.99
2018-03-29T02:50:34.080Z,99.99
2018-03-29T02:51:34.096Z,99.99
2018-03-29T02:52:34.123Z,99.99
2018-03-29T02:53:34.132Z,99.99
2018-03-29T02:54:34.155Z,99.99
2018-03-29T02:55:34.193Z,99.99
2018-03-29T02:56:34.214Z,99.99
2018-03-29T02:57:34.230Z,99.99
2018-03-29T02:58:34.256Z,99.99
2018-03-29T02:59:34.659Z,99.99
2018-03-29T03:00:35.083Z,99.99
2018-03-29T03:01:35.084Z,99.99
2018-03-29T03:02:35.118Z,99.99
2018-03-29T03:03:35.220Z,99.99
2018-03-29T03:04:35.890Z,99.99
2018-03-29T03:05:35.645Z,99.99
2018-03-29T03:06:35.938Z,99.99
2018-03-29T03:07:36.352Z,99.99
2018-03-29T03:08:36.750Z,99.99
2018-03-29T03:09:36.752Z,99.99
2018-03-29T03:10:36.509Z,99.99
2018-03-29T03:11:36.640Z,99.99
2018-03-29T03:12:36.948Z,99.99
2018-03-29T03:13:36.969Z,99.99
2018-03-29T03:14:37.335Z,99.99
2018-03-29T03:15:37.106Z,99.99
2018-03-29T03:16:37.404Z,99.99
2018-03-29T03:17:37.495Z,99.99
2018-03-29T03:18:38.155Z,99.99
2018-03-29T03:19:38.177Z,99.99
2018-03-29T03:20:38.202Z,99.99
2018-03-29T03:21:38.330Z,99.99
2018-03-29T03:22:38.624Z,99.99
2018-03-29T03:23:38.643Z,99.99
2018-03-29T03:24:38.660Z,99.99
2018-03-29T03:25:39.076Z,99.99
2018-03-29T03:26:39.082Z,99.99
2018-03-29T03:27:39.500Z,99.99
2018-03-29T03:28:39.517Z,99.99
2018-03-29T03:29:39.549Z,99.99
2018-03-29T03:30:39.291Z,99.99
2018-03-29T03:31:39.729Z,99.99
2018-03-29T03:32:39.894Z,99.99
2018-03-29T03:33:39.925Z,99.99
2018-03-29T03:34:40.050Z,99.99
2018-03-29T03:35:40.352Z,99.99
2018-03-29T03:36:40.182Z,99.99
2018-03-29T03:37:40.573Z,99.99
2018-03-29T03:38:40.882Z,99.99
2018-03-29T03:39:40.969Z,99.99
2018-03-29T03:40:41.086Z,99.99
2018-03-29T03:41:41.767Z,99.99
2018-03-29T03:42:41.465Z,99.99
2018-03-29T03:43:42.133Z,99.99
2018-03-29T03:44:42.284Z,99.99
2018-03-29T03:45:42.643Z,99.99
2018-03-29T03:46:43.067Z,99.99
2018-03-29T03:47:43.195Z,99.99
2018-03-29T03:48:43.840Z,99.99
2018-03-29T03:49:44.042Z,99.99
2018-03-29T03:50:43.786Z,99.99
2018-03-29T03:51:44.438Z,99.99
2018-03-29T03:52:44.699Z,99.99
2018-03-29T03:53:44.705Z,99.99
2018-03-29T03:54:45.104Z,99.99
2018-03-29T03:55:45.262Z,99.99
2018-03-29T03:56:45.140Z,99.99
2018-03-29T03:57:45.791Z,99.99
2018-03-29T03:58:45.800Z,99.99
2018-03-29T03:59:45.965Z,99.99
2018-03-29T04:00:45.711Z,99.99
2018-03-29T04:01:46.009Z,99.99
2018-03-29T04:02:45.866Z,99.99
2018-03-29T04:03:45.984Z,99.99
2018-03-29T04:04:46.573Z,99.99
2018-03-29T04:05:46.641Z,99.99
2018-03-29T04:06:46.391Z,99.99
2018-03-29T04:07:47.031Z,99.99
2018-03-29T04:08:47.115Z,99.99
2018-03-29T04:09:47.404Z,99.99
2018-03-29T04:10:47.437Z,99.99
2018-03-29T04:11:47.542Z,99.99
2018-03-29T04:12:47.565Z,99.99
2018-03-29T04:13:47.924Z,99.99
2018-03-29T04:14:48.033Z,99.99
2018-03-29T04:15:48.454Z,99.99
2018-03-29T04:16:48.590Z,99.99
2018-03-29T04:17:48.325Z,99.99
2018-03-29T04:18:48.351Z,99.99
2018-03-29T04:19:48.472Z,99.99
2018-03-29T04:20:48.911Z,99.99
2018-03-29T04:21:49.320Z,99.99
2018-03-29T04:22:49.332Z,99.99
2018-03-29T04:23:49.348Z,99.99
2018-03-29T04:24:49.444Z,99.99
2018-03-29T04:25:49.392Z,99.99
2018-03-29T04:26:49.534Z,99.99
2018-03-29T04:27:49.936Z,99.99
2018-03-29T04:28:50.055Z,99.99
2018-03-29T04:29:50.452Z,99.99
2018-03-29T04:30:50.532Z,99.99
2018-03-29T04:31:50.896Z,99.99
2018-03-29T04:32:50.919Z,99.99
2018-03-29T04:33:51.311Z,99.99
2018-03-29T04:34:51.612Z,99.99
2018-03-29T04:35:51.091Z,99.99
2018-03-29T04:36:51.734Z,99.99
2018-03-29T04:37:52.132Z,99.99
2018-03-29T04:38:52.153Z,99.99
2018-03-29T04:39:51.991Z,99.99
2018-03-29T04:40:52.020Z,99.99
2018-03-29T04:41:52.319Z,99.99
2018-03-29T04:42:52.352Z,99.99
2018-03-29T04:43:52.471Z,99.99
2018-03-29T04:44:52.609Z,99.99
2018-03-29T04:45:52.637Z,99.99
2018-03-29T04:46:52.742Z,99.99
2018-03-29T04:47:52.480Z,99.99
2018-03-29T04:48:52.777Z,99.99
2018-03-29T04:49:53.178Z,99.99
2018-03-29T04:50:53.202Z,99.99
2018-03-29T04:51:53.033Z,99.99
2018-03-29T04:52:53.340Z,99.99
2018-03-29T04:53:53.508Z,99.99
2018-03-29T04:54:53.260Z,99.99
2018-03-29T04:55:53.662Z,99.99
2018-03-29T04:56:53.681Z,99.99
2018-03-29T04:57:53.684Z,99.99
2018-03-29T04:58:53.726Z,99.99
2018-03-29T04:59:53.867Z,99.99
2018-03-29T05:00:53.631Z,99.99
2018-03-29T05:01:53.918Z,99.99
2018-03-29T05:02:53.887Z,99.99
2018-03-29T05:03:54.186Z,99.99
2018-03-29T05:04:53.928Z,99.99
2018-03-29T05:05:54.234Z,99.99
2018-03-29T05:06:54.708Z,99.99
2018-03-29T05:07:54.457Z,99.99
2018-03-29T05:08:55.164Z,99.99
2018-03-29T05:09:55.034Z,99.99
2018-03-29T05:10:55.011Z,99.99
2018-03-29T05:11:55.241Z,99.99
2018-03-29T05:12:55.212Z,99.99
2018-03-29T05:13:55.710Z,99.99
2018-03-29T05:14:55.955Z,99.99
2018-03-29T05:15:56.413Z,99.99
2018-03-29T05:16:56.684Z,99.99
2018-03-29T05:17:56.703Z,99.99
2018-03-29T05:18:56.914Z,99.99
2018-03-29T05:19:56.937Z,99.99
2018-03-29T05:20:56.973Z,99.99
2018-03-29T05:21:56.723Z,99.99
2018-03-29T05:22:57.016Z,99.99
2018-03-29T05:23:57.038Z,99.99
2018-03-29T05:24:57.054Z,99.99
2018-03-29T05:25:56.817Z,99.99
2018-03-29T05:26:57.048Z,99.99
2018-03-29T05:27:57.342Z,99.99
2018-03-29T05:28:57.399Z,99.99
2018-03-29T05:29:57.642Z,99.99
2018-03-29T05:30:57.405Z,99.99
2018-03-29T05:31:57.719Z,99.99
2018-03-29T05:32:57.742Z,99.99
2018-03-29T05:33:57.768Z,99.99
2018-03-29T05:34:57.796Z,99.99
2018-03-29T05:35:58.221Z,99.99
2018-03-29T05:36:58.235Z,99.99
2018-03-29T05:37:58.264Z,99.99
2018-03-29T05:38:57.997Z,99.99
2018-03-29T05:39:58.097Z,99.99
2018-03-29T05:40:58.526Z,99.99
2018-03-29T05:41:58.772Z,99.99
2018-03-29T05:42:58.506Z,99.99
2018-03-29T05:43:58.806Z,99.99
2018-03-29T05:44:58.836Z,99.99
2018-03-29T05:45:58.585Z,99.99
2018-03-29T05:46:59.481Z,99.99
2018-03-29T05:47:59.432Z,99.99
2018-03-29T05:48:59.449Z,99.99
2018-03-29T05:49:59.476Z,99.99
2018-03-29T05:50:59.500Z,99.99
2018-03-29T05:51:59.778Z,99.99
2018-03-29T05:52:59.524Z,99.99
2018-03-29T05:53:59.552Z,99.99
2018-03-29T05:55:00.096Z,99.99
2018-03-29T05:56:00.215Z,99.99
2018-03-29T05:56:59.949Z,99.99
2018-03-29T05:57:59.975Z,99.99
2018-03-29T05:59:00.001Z,99.99
2018-03-29T06:00:00.433Z,99.99
2018-03-29T06:01:00.563Z,99.99
2018-03-29T06:02:00.582Z,99.99
2018-03-29T06:03:01.088Z,99.99
2018-03-29T06:04:01.026Z,99.99
2018-03-29T06:05:01.062Z,99.99
2018-03-29T06:06:01.468Z,99.99
2018-03-29T06:07:01.655Z,99.99
2018-03-29T06:08:01.717Z,99.99
2018-03-29T06:09:01.602Z,99.99
2018-03-29T06:10:02.271Z,99.99
2018-03-29T06:11:02.338Z,99.99
2018-03-29T06:12:02.316Z,99.99
2018-03-29T06:13:02.337Z,99.99
2018-03-29T06:14:02.784Z,99.99
2018-03-29T06:15:03.309Z,99.99
2018-03-29T06:16:03.471Z,99.99
2018-03-29T06:17:03.496Z,99.99
2018-03-29T06:18:03.656Z,99.99
2018-03-29T06:19:03.711Z,99.99
2018-03-29T06:20:04.166Z,99.99
2018-03-29T06:21:04.239Z,99.99
2018-03-29T06:22:04.924Z,99.99
2018-03-29T06:23:04.930Z,99.99
2018-03-29T06:24:05.325Z,99.99
2018-03-29T06:25:05.718Z,99.99
2018-03-29T06:26:05.879Z,99.99
2018-03-29T06:27:06.171Z,99.99
2018-03-29T06:28:06.162Z,99.99
2018-03-29T06:29:06.346Z,99.99
2018-03-29T06:30:06.616Z,99.99
2018-03-29T06:31:07.109Z,99.99
2018-03-29T06:32:07.529Z,99.99
2018-03-29T06:33:07.398Z,99.99
2018-03-29T06:34:07.827Z,99.99
2018-03-29T06:35:07.835Z,99.99
2018-03-29T06:36:07.866Z,99.99
2018-03-29T06:37:07.993Z,99.99
2018-03-29T06:38:07.735Z,99.99
2018-03-29T06:39:07.872Z,99.99
2018-03-29T06:40:08.324Z,99.99
2018-03-29T06:41:08.982Z,99.99
2018-03-29T06:42:09.007Z,99.99
2018-03-29T06:43:09.160Z,99.99
2018-03-29T06:44:09.162Z,99.99
2018-03-29T06:45:09.475Z,99.99
2018-03-29T06:46:09.891Z,99.99
2018-03-29T06:47:09.886Z,99.99
2018-03-29T06:48:10.311Z,99.99
2018-03-29T06:49:10.688Z,99.99
2018-03-29T06:50:10.720Z,99.99
2018-03-29T06:51:10.731Z,99.99
2018-03-29T06:52:11.146Z,99.99
2018-03-29T06:53:11.167Z,99.99
2018-03-29T06:54:11.313Z,99.99
2018-03-29T06:55:11.339Z,99.99
2018-03-29T06:56:11.364Z,99.99
2018-03-29T06:57:11.387Z,99.99
2018-03-29T06:58:11.414Z,99.99
2018-03-29T06:59:11.803Z,99.99
2018-03-29T07:00:12.101Z,99.99
2018-03-29T07:01:12.006Z,99.99
2018-03-29T07:02:12.024Z,99.99
2018-03-29T07:03:12.384Z,99.99
2018-03-29T07:04:12.397Z,99.99
2018-03-29T07:05:12.704Z,99.99
2018-03-29T07:06:12.743Z,99.99
2018-03-29T07:07:12.768Z,99.99
2018-03-29T07:08:12.789Z,99.99
2018-03-29T07:09:12.811Z,99.99
2018-03-29T07:10:12.562Z,99.99
2018-03-29T07:11:13.152Z,99.99
2018-03-29T07:12:13.204Z,99.99
2018-03-29T07:13:13.224Z,99.99
2018-03-29T07:14:13.298Z,99.99
2018-03-29T07:15:13.273Z,99.99
2018-03-29T07:16:13.059Z,99.99
2018-03-29T07:17:13.390Z,99.99
2018-03-29T07:18:13.144Z,99.99
2018-03-29T07:19:13.446Z,99.99
2018-03-29T07:20:13.479Z,99.99
2018-03-29T07:21:13.562Z,99.99
2018-03-29T07:22:13.591Z,99.99
2018-03-29T07:23:13.327Z,99.99
2018-03-29T07:24:13.644Z,99.99
2018-03-29T07:25:13.665Z,99.99
2018-03-29T07:26:13.709Z,99.99
2018-03-29T07:27:13.728Z,99.99
2018-03-29T07:28:13.751Z,99.99
2018-03-29T07:29:13.810Z,99.99
2018-03-29T07:30:14.115Z,99.99
2018-03-29T07:31:14.125Z,99.99
2018-03-29T07:32:13.887Z,99.99
2018-03-29T07:33:13.912Z,99.99
2018-03-29T07:34:13.973Z,99.99
2018-03-29T07:35:14.285Z,99.99
2018-03-29T07:36:14.596Z,99.99
2018-03-29T07:37:14.611Z,99.99
2018-03-29T07:38:14.357Z,99.99
2018-03-29T07:39:14.686Z,99.99
2018-03-29T07:40:14.439Z,99.99
2018-03-29T07:41:15.030Z,99.99
2018-03-29T07:42:15.048Z,99.99
2018-03-29T07:43:14.820Z,99.99
2018-03-29T07:44:15.227Z,99.99
2018-03-29T07:45:15.166Z,99.99
2018-03-29T07:46:15.186Z,99.99
2018-03-29T07:47:15.264Z,99.99
2018-03-29T07:48:15.259Z,99.99
2018-03-29T07:49:15.290Z,99.99
2018-03-29T07:50:15.305Z,99.99
2018-03-29T07:51:15.345Z,99.99
2018-03-29T07:52:15.369Z,99.99
2018-03-29T07:53:15.157Z,99.99
2018-03-29T07:54:15.414Z,99.99
2018-03-29T07:55:15.161Z,99.99
2018-03-29T07:56:15.746Z,99.99
2018-03-29T07:57:15.776Z,99.99
2018-03-29T07:58:15.834Z,99.99
2018-03-29T07:59:15.855Z,99.99
2018-03-29T08:00:15.943Z,99.99
2018-03-29T08:01:16.257Z,99.99
2018-03-29T08:02:16.269Z,99.99
2018-03-29T08:03:16.332Z,99.99
2018-03-29T08:04:16.105Z,99.99
2018-03-29T08:05:16.656Z,99.99
2018-03-29T08:06:16.480Z,99.99
2018-03-29T08:07:16.148Z,99.99
2018-03-29T08:08:16.531Z,99.99
2018-03-29T08:09:16.938Z,99.99
2018-03-29T08:10:16.953Z,99.99
2018-03-29T08:11:16.963Z,99.99
2018-03-29T08:12:17.193Z,99.99
2018-03-29T08:13:17.219Z,99.99
2018-03-29T08:14:16.970Z,99.99
2018-03-29T08:15:17.742Z,99.99
2018-03-29T08:16:17.576Z,99.99
2018-03-29T08:17:18.533Z,99.99
2018-03-29T08:18:18.365Z,99.99
2018-03-29T08:19:17.986Z,99.99
2018-03-29T08:20:18.158Z,99.99
2018-03-29T08:21:18.530Z,99.99
2018-03-29T08:22:17.786Z,99.99
2018-03-29T08:23:18.324Z,99.99
2018-03-29T08:24:18.367Z,99.99
2018-03-29T08:25:18.202Z,99.99
2018-03-29T08:26:18.394Z,99.99
2018-03-29T08:27:18.154Z,99.99
2018-03-29T08:28:18.462Z,99.99
2018-03-29T08:29:18.783Z,99.99
2018-03-29T08:30:18.880Z,99.99
2018-03-29T08:31:18.924Z,99.99
2018-03-29T08:32:18.938Z,99.99
2018-03-29T08:33:19.039Z,99.99
2018-03-29T08:34:19.354Z,99.99
2018-03-29T08:35:19.368Z,99.99
2018-03-29T08:36:19.367Z,99.99
2018-03-29T08:37:19.437Z,99.99
2018-03-29T08:38:19.764Z,99.99
2018-03-29T08:39:19.510Z,99.99
2018-03-29T08:40:19.961Z,99.99
2018-03-29T08:41:20.253Z,99.99
2018-03-29T08:42:20.415Z,99.99
2018-03-29T08:43:20.353Z,99.99
2018-03-29T08:44:20.366Z,99.99
2018-03-29T08:45:21.037Z,99.99
2018-03-29T08:46:20.597Z,99.99
2018-03-29T08:47:20.963Z,99.99
2018-03-29T08:48:21.146Z,99.99
2018-03-29T08:49:21.139Z,99.99
2018-03-29T08:50:21.274Z,99.99
2018-03-29T08:51:22.255Z,99.99
2018-03-29T08:52:21.964Z,99.99
2018-03-29T08:53:21.737Z,99.99
2018-03-29T08:54:22.484Z,99.99
2018-03-29T08:55:22.273Z,99.99
2018-03-29T08:56:22.047Z,99.99
2018-03-29T08:57:22.640Z,99.99
2018-03-29T08:58:22.096Z,99.99
2018-03-29T08:59:22.404Z,99.99
2018-03-29T09:00:22.456Z,99.99
2018-03-29T09:01:22.533Z,99.99
2018-03-29T09:02:22.225Z,99.99
2018-03-29T09:03:23.079Z,99.99
2018-03-29T09:04:23.019Z,99.99
2018-03-29T09:05:23.645Z,99.99
2018-03-29T09:06:23.267Z,99.99
2018-03-29T09:07:22.725Z,99.99
2018-03-29T09:08:23.036Z,99.99
2018-03-29T09:09:22.790Z,99.99
2018-03-29T09:10:23.144Z,99.99
2018-03-29T09:11:23.152Z,99.99
2018-03-29T09:12:22.868Z,99.99
2018-03-29T09:13:23.051Z,99.99
2018-03-29T09:14:23.460Z,99.99
2018-03-29T09:15:23.481Z,99.99
2018-03-29T09:16:23.504Z,99.99
2018-03-29T09:17:23.298Z,99.99
2018-03-29T09:18:25.374Z,99.99
2018-03-29T09:19:23.953Z,99.99
2018-03-29T09:20:23.692Z,99.99
2018-03-29T09:21:23.984Z,99.99
2018-03-29T09:22:24.007Z,99.99
2018-03-29T09:23:23.761Z,99.93
2018-03-29T09:24:24.141Z,98.97
2018-03-29T09:25:24.169Z,98.36
2018-03-29T09:26:23.911Z,98.27
2018-03-29T09:27:23.925Z,96.74
2018-03-29T09:28:24.537Z,96.36
2018-03-29T09:29:24.959Z,96.74
2018-03-29T09:30:25.149Z,97.22
2018-03-29T09:31:25.211Z,98.41
2018-03-29T09:32:25.642Z,99.26
2018-03-29T09:33:26.003Z,98.31
2018-03-29T09:34:26.011Z,98.12
2018-03-29T09:35:26.197Z,98.5
2018-03-29T09:36:26.046Z,97.93
2018-03-29T09:37:26.066Z,98.97
2018-03-29T09:38:26.087Z,99.02
2018-03-29T09:39:25.869Z,99.99
2018-03-29T09:40:26.470Z,99.99
2018-03-29T09:41:26.172Z,99.99
2018-03-29T09:42:25.986Z,99.99
2018-03-29T09:43:26.625Z,99.99
2018-03-29T09:44:26.704Z,99.99
2018-03-29T09:45:26.734Z,99.3
2018-03-29T09:46:26.750Z,97.74
2018-03-29T09:47:26.764Z,96.5
2018-03-29T09:48:26.822Z,97.41
2018-03-29T09:49:26.837Z,95.94
2018-03-29T09:50:27.146Z,89.84
2018-03-29T09:51:27.163Z,88.59
2018-03-29T09:52:27.437Z,86.06
2018-03-29T09:53:27.457Z,85.05
2018-03-29T09:54:27.187Z,84.67
2018-03-29T09:55:27.976Z,83.67
2018-03-29T09:56:27.942Z,83.96
2018-03-29T09:57:27.998Z,85.11
2018-03-29T09:58:28.435Z,83.62
2018-03-29T09:59:28.331Z,81.99
2018-03-29T10:00:28.015Z,79.73
2018-03-29T10:01:27.789Z,79.49
2018-03-29T10:02:28.376Z,77.95
2018-03-29T10:03:28.449Z,76.57
2018-03-29T10:04:28.763Z,78.64
2018-03-29T10:05:28.793Z,79.17
2018-03-29T10:06:28.850Z,80.28
2018-03-29T10:07:28.890Z,81.86
2018-03-29T10:08:29.202Z,83.25
2018-03-29T10:09:29.236Z,85.31
2018-03-29T10:10:29.257Z,86.79
2018-03-29T10:11:29.290Z,87.74
2018-03-29T10:12:29.335Z,89.61
2018-03-29T10:13:29.074Z,90.89
2018-03-29T10:14:29.385Z,92.18
2018-03-29T10:15:29.415Z,91.32
2018-03-29T10:16:29.158Z,92.13
2018-03-29T10:17:29.476Z,93.18
2018-03-29T10:18:29.510Z,95.75
2018-03-29T10:19:29.540Z,97.93
2018-03-29T10:20:29.606Z,97.45
2018-03-29T10:21:29.634Z,96.22
2018-03-29T10:22:29.666Z,95.51
2018-03-29T10:23:29.687Z,96.08
2018-03-29T10:24:29.721Z,97.41
2018-03-29T10:25:29.765Z,95.7
2018-03-29T10:26:29.756Z,95.41
2018-03-29T10:27:29.796Z,95.22
2018-03-29T10:28:29.822Z,96.03
2018-03-29T10:29:29.578Z,96.22
2018-03-29T10:30:29.909Z,96.36
2018-03-29T10:31:29.930Z,95.65
2018-03-29T10:32:30.006Z,95.6
2018-03-29T10:33:30.021Z,94.65
2018-03-29T10:34:30.055Z,94.74
2018-03-29T10:35:30.096Z,95.51
2018-03-29T10:36:30.688Z,96.08
2018-03-29T10:37:30.444Z,95.7
2018-03-29T10:38:30.787Z,94.93
2018-03-29T10:39:31.128Z,95.7
2018-03-29T10:40:31.452Z,95.6
2018-03-29T10:41:31.478Z,97.6
2018-03-29T10:42:31.248Z,96.84
2018-03-29T10:43:31.635Z,96.84
2018-03-29T10:44:31.673Z,95.7
2018-03-29T10:45:31.415Z,96.36
2018-03-29T10:46:31.717Z,97.78
2018-03-29T10:47:31.758Z,97.41
2018-03-29T10:48:31.770Z,95.89
2018-03-29T10:49:31.794Z,95.46
2018-03-29T10:50:31.839Z,94.7
2018-03-29T10:51:31.857Z,92.51
2018-03-29T10:52:31.596Z,91.51
2018-03-29T10:53:32.241Z,90.89
2018-03-29T10:54:31.990Z,91.08
2018-03-29T10:55:32.606Z,92.13
2018-03-29T10:56:32.954Z,92.51
2018-03-29T10:57:32.979Z,92.99
2018-03-29T10:58:33.011Z,93.04
2018-03-29T10:59:33.041Z,93.13
2018-03-29T11:00:33.012Z,92.94
2018-03-29T11:01:33.422Z,92.6
2018-03-29T11:02:33.832Z,90.51
2018-03-29T11:03:33.712Z,89.47
2018-03-29T11:04:34.098Z,89.18
2018-03-29T11:05:34.233Z,88.6
2018-03-29T11:06:34.523Z,89.08
2018-03-29T11:07:34.952Z,88.79
2018-03-29T11:08:34.956Z,89.18
2018-03-29T11:09:34.977Z,89.56
2018-03-29T11:10:35.026Z,88.27
2018-03-29T11:11:34.773Z,86.36
2018-03-29T11:12:35.174Z,85.08
2018-03-29T11:13:35.318Z,85.7
2018-03-29T11:14:35.730Z,86.36
2018-03-29T11:15:35.750Z,86.9
2018-03-29T11:16:35.859Z,88.6
2018-03-29T11:17:35.602Z,88.46
2018-03-29T11:18:35.916Z,89.61
2018-03-29T11:19:35.939Z,89.8
2018-03-29T11:20:36.344Z,90.47
2018-03-29T11:21:36.476Z,89.99
2018-03-29T11:22:36.787Z,89.8
2018-03-29T11:23:36.665Z,89.23
2018-03-29T11:24:37.077Z,89.51
2018-03-29T11:25:37.096Z,88.85
2018-03-29T11:26:37.128Z,89.66
2018-03-29T11:27:37.533Z,90.61
2018-03-29T11:28:37.699Z,90.7
2018-03-29T11:29:38.114Z,90.33
2018-03-29T11:30:38.260Z,89.66
2018-03-29T11:31:38.568Z,89.85
2018-03-29T11:32:38.601Z,90.37
2018-03-29T11:33:38.993Z,89.94
2018-03-29T11:34:39.040Z,89.04
2018-03-29T11:35:39.081Z,89.32
2018-03-29T11:36:39.083Z,88.85
2018-03-29T11:37:39.230Z,89.61
2018-03-29T11:38:39.261Z,89.51
2018-03-29T11:39:39.703Z,88.9
2018-03-29T11:40:39.738Z,89.85
2018-03-29T11:41:39.757Z,88.9
2018-03-29T11:42:39.793Z,89.85
2018-03-29T11:43:40.171Z,90.33
2018-03-29T11:44:40.323Z,90.8
2018-03-29T11:45:40.069Z,92.03
2018-03-29T11:46:40.733Z,91.75
2018-03-29T11:47:40.748Z,91.66
2018-03-29T11:48:40.791Z,89.75
2018-03-29T11:49:40.937Z,89.66
2018-03-29T11:50:40.965Z,89.28
2018-03-29T11:51:41.372Z,91.47
2018-03-29T11:52:41.773Z,91.56
2018-03-29T11:53:41.808Z,91.28
2018-03-29T11:54:42.176Z,92.99
2018-03-29T11:55:42.330Z,91.75
2018-03-29T11:56:42.748Z,91.56
2018-03-29T11:57:43.165Z,90.42
2018-03-29T11:58:43.580Z,90.89
2018-03-29T11:59:43.705Z,90.14
2018-03-29T12:00:44.100Z,90.14
2018-03-29T12:01:44.112Z,91.37
2018-03-29T12:02:44.147Z,91.47
2018-03-29T12:03:44.168Z,89.94
2018-03-29T12:04:44.196Z,89
2018-03-29T12:05:44.621Z,89.66
2018-03-29T12:06:44.788Z,89.66
2018-03-29T12:07:45.186Z,89.18
2018-03-29T12:08:45.225Z,87.95
2018-03-29T12:09:45.355Z,86.8
2018-03-29T12:10:45.675Z,88.13
2018-03-29T12:11:46.083Z,88.42
2018-03-29T12:12:46.128Z,89.47
2018-03-29T12:13:46.543Z,88.8
2018-03-29T12:14:47.193Z,88.04
2018-03-29T12:15:46.917Z,88.42
2018-03-29T12:16:47.250Z,89
2018-03-29T12:17:47.388Z,89.66
2018-03-29T12:18:47.443Z,88.8
2018-03-29T12:19:47.840Z,89
2018-03-29T12:20:47.877Z,88.13
2018-03-29T12:21:48.124Z,87.38
2018-03-29T12:22:48.026Z,88.04
2018-03-29T12:23:48.442Z,87.71
2018-03-29T12:24:48.143Z,87.99
2018-03-29T12:25:48.550Z,86.94
2018-03-29T12:26:48.576Z,87.13
2018-03-29T12:27:48.988Z,86.76
2018-03-29T12:28:49.411Z,87.8
2018-03-29T12:29:49.496Z,87.04
2018-03-29T12:30:49.827Z,86.94
2018-03-29T12:31:49.572Z,86.94
2018-03-29T12:32:49.877Z,87.04
2018-03-29T12:33:50.006Z,87.61
2018-03-29T12:34:50.357Z,87.04
2018-03-29T12:35:50.737Z,86.61
2018-03-29T12:36:50.892Z,87.85
2018-03-29T12:37:51.027Z,88.52
2018-03-29T12:38:51.037Z,87.95
2018-03-29T12:39:51.076Z,88.33
2018-03-29T12:40:50.913Z,89.66
2018-03-29T12:41:51.231Z,90.8
2018-03-29T12:42:51.115Z,89.32
2018-03-29T12:43:51.521Z,87.61
2018-03-29T12:44:51.676Z,87.57
2018-03-29T12:45:51.680Z,88.46
2018-03-29T12:46:51.854Z,87.61
2018-03-29T12:47:51.454Z,86.94
2018-03-29T12:48:51.587Z,87.32
2018-03-29T12:49:51.894Z,87.42
2018-03-29T12:50:52.299Z,86.38
2018-03-29T12:51:52.385Z,86.85
2018-03-29T12:52:52.573Z,87.32
2018-03-29T12:53:52.705Z,88.28
2018-03-29T12:54:52.720Z,88.46
2018-03-29T12:55:53.110Z,90.7